Time,TemperatureF,DewpointF,PressureIn,WindDirection,WindDirectionDegrees,WindSpeedMPH,WindSpeedGustMPH,Humidity,HourlyPrecipIn,Conditions,Clouds,dailyrainin,SoftwareType,DateUTC
2013-09-03 07:44:00,58.0,56.3,29.78,ENE,68,0.0,0.0,94,1.24,,SKC,0.01,VWS V14.01,2013-09-03 11:44:00,
2013-09-03 07:45:00,58.0,56.3,29.79,ENE,68,0.0,0.0,94,1.24,,SKC,0.01,VWS V14.01,2013-09-03 11:45:00,
2013-09-03 07:46:00,58.0,56.3,29.79,ENE,68,0.0,0.0,94,1.24,,SKC,0.01,VWS V14.01,2013-09-03 11:46:00,
2013-09-03 07:47:00,58.0,56.3,29.79,ENE,68,2.0,2.0,94,1.24,,SKC,0.01,VWS V14.01,2013-09-03 11:47:00,
2013-09-03 07:52:00,58.0,56.3,29.79,ENE,68,0.0,4.0,94,1.24,,SKC,0.01,VWS V14.01,2013-09-03 11:52:00,
2013-09-03 07:57:00,58.1,56.4,29.79,ENE,68,0.0,4.0,94,1.24,,SKC,0.01,VWS V14.01,2013-09-03 11:57:00,
2013-09-03 08:00:00,58.1,56.4,29.79,ENE,68,0.0,4.0,94,1.24,,SKC,0.01,VWS V14.01,2013-09-03 12:00:00,
2013-09-03 08:02:00,58.3,56.3,29.79,ENE,68,0.0,0.0,93,0.00,,SKC,0.01,VWS V14.01,2013-09-03 12:02:00,
2013-09-03 08:07:00,58.3,56.3,29.79,ENE,68,0.0,0.0,93,0.00,,SKC,0.01,VWS V14.01,2013-09-03 12:07:00,
2013-09-03 08:12:00,58.3,56.3,29.79,ENE,68,0.0,0.0,93,0.00,,SKC,0.01,VWS V14.01,2013-09-03 12:12:00,
2013-09-03 08:17:00,58.6,56.6,29.80,ENE,68,0.0,0.0,93,0.00,,SKC,0.01,VWS V14.01,2013-09-03 12:17:00,
2013-09-03 08:23:00,58.9,56.9,29.80,ENE,68,0.0,0.0,93,0.00,,SKC,0.01,VWS V14.01,2013-09-03 12:23:00,
2013-09-03 08:28:00,59.0,57.0,29.80,ENE,68,0.0,0.0,93,0.00,,SKC,0.01,VWS V14.01,2013-09-03 12:28:00,
2013-09-03 08:33:00,59.0,57.0,29.80,ENE,68,0.0,0.0,93,0.00,,SKC,0.01,VWS V14.01,2013-09-03 12:33:00,
2013-09-03 08:38:00,59.2,56.9,29.80,ENE,68,0.0,0.0,92,0.00,,SKC,0.01,VWS V14.01,2013-09-03 12:38:00,
2013-09-03 08:43:00,59.3,57.0,29.80,ENE,68,0.0,0.0,92,0.00,,SKC,0.01,VWS V14.01,2013-09-03 12:43:00,
2013-09-03 08:48:00,59.6,57.3,29.80,ENE,68,4.0,5.0,92,0.00,,SKC,0.01,VWS V14.01,2013-09-03 12:48:00,
2013-09-03 08:53:00,60.1,57.8,29.80,ENE,68,2.0,5.0,92,0.00,,SKC,0.01,VWS V14.01,2013-09-03 12:53:00,
2013-09-03 08:58:00,60.4,58.1,29.80,ENE,68,0.0,5.0,92,0.00,,SKC,0.01,VWS V14.01,2013-09-03 12:58:00,
2013-09-03 09:00:00,60.5,57.9,29.82,East,96,4.0,6.0,91,0.00,,SKC,0.01,VWS V14.01,2013-09-03 13:00:00,
2013-09-03 09:03:00,60.4,57.2,29.82,East,94,2.0,8.0,89,0.00,,SKC,0.01,VWS V14.01,2013-09-03 13:03:00,
2013-09-03 09:08:00,60.2,56.3,29.82,ENE,72,0.0,13.0,87,0.00,,SKC,0.01,VWS V14.01,2013-09-03 13:08:00,
2013-09-03 09:14:00,60.5,56.6,29.82,ENE,72,1.0,13.0,87,0.00,,SKC,0.01,VWS V14.01,2013-09-03 13:14:00,
2013-09-03 09:19:00,60.9,57.0,29.82,ESE,113,5.0,13.0,87,0.00,,SKC,0.01,VWS V14.01,2013-09-03 13:19:00,
2013-09-03 09:24:00,61.0,56.5,29.82,East,100,4.0,13.0,85,0.00,,SKC,0.01,VWS V14.01,2013-09-03 13:24:00,
2013-09-03 09:29:00,61.3,56.1,29.82,East,96,0.0,13.0,83,0.00,,SKC,0.01,VWS V14.01,2013-09-03 13:29:00,
2013-09-03 09:34:00,61.5,56.0,29.82,East,90,5.0,13.0,82,0.00,,SKC,0.01,VWS V14.01,2013-09-03 13:34:00,
2013-09-03 09:39:00,61.8,55.6,29.82,East,96,4.0,13.0,80,0.00,,SKC,0.01,VWS V14.01,2013-09-03 13:39:00,
2013-09-03 09:44:00,62.1,55.5,29.82,ENE,78,5.0,13.0,79,0.00,,SKC,0.01,VWS V14.01,2013-09-03 13:44:00,
2013-09-03 09:49:00,62.6,56.0,29.82,ENE,69,1.0,13.0,79,0.00,,SKC,0.01,VWS V14.01,2013-09-03 13:49:00,
2013-09-03 09:54:00,63.1,55.8,29.82,East,80,5.0,13.0,77,0.00,,SKC,0.01,VWS V14.01,2013-09-03 13:54:00,
2013-09-03 09:59:00,63.1,55.8,29.82,East,88,5.0,13.0,77,0.00,,SKC,0.01,VWS V14.01,2013-09-03 13:59:00,
2013-09-03 10:00:00,63.1,55.4,29.83,East,88,6.0,13.0,76,0.00,,SKC,0.01,VWS V14.01,2013-09-03 14:00:00,
2013-09-03 10:04:00,62.9,55.2,29.83,East,101,5.0,8.0,76,0.00,,SKC,0.01,VWS V14.01,2013-09-03 14:04:00,
2013-09-03 10:09:00,62.7,54.3,29.83,East,96,2.0,10.0,74,0.00,,SKC,0.01,VWS V14.01,2013-09-03 14:09:00,
2013-09-03 10:15:00,62.9,54.5,29.83,ENE,73,5.0,10.0,74,0.00,,SKC,0.01,VWS V14.01,2013-09-03 14:15:00,
2013-09-03 10:20:00,63.1,53.9,29.83,East,83,0.0,10.0,72,0.00,,SKC,0.01,VWS V14.01,2013-09-03 14:20:00,
2013-09-03 10:25:00,63.1,53.9,29.83,SSE,151,0.0,10.0,72,0.00,,SKC,0.01,VWS V14.01,2013-09-03 14:25:00,
2013-09-03 10:30:00,63.4,53.8,29.83,ESE,108,7.0,10.0,71,0.00,,SKC,0.01,VWS V14.01,2013-09-03 14:30:00,
2013-09-03 10:35:00,63.7,53.3,29.83,ESE,118,2.0,10.0,69,0.00,,SKC,0.01,VWS V14.01,2013-09-03 14:35:00,
2013-09-03 10:40:00,63.7,53.3,29.83,East,90,0.0,10.0,69,0.00,,SKC,0.01,VWS V14.01,2013-09-03 14:40:00,
2013-09-03 10:45:00,64.0,53.2,29.83,East,97,6.0,10.0,68,0.00,,SKC,0.01,VWS V14.01,2013-09-03 14:45:00,
2013-09-03 10:50:00,64.2,53.4,29.83,ENE,76,4.0,10.0,68,0.00,,SKC,0.01,VWS V14.01,2013-09-03 14:50:00,
2013-09-03 10:55:00,64.2,53.8,29.83,East,80,0.0,10.0,69,0.00,,SKC,0.01,VWS V14.01,2013-09-03 14:55:00,
2013-09-03 11:00:00,64.2,54.2,29.83,East,101,5.0,10.0,70,0.00,,SKC,0.01,VWS V14.01,2013-09-03 15:00:00,
2013-09-03 11:06:00,63.9,52.7,29.83,ENE,65,3.0,8.0,67,0.00,,SKC,0.01,VWS V14.01,2013-09-03 15:06:00,
2013-09-03 11:11:00,63.9,53.1,29.83,ENE,78,2.0,9.0,68,0.00,,SKC,0.01,VWS V14.01,2013-09-03 15:11:00,
2013-09-03 11:16:00,64.3,53.5,29.83,ESE,105,0.0,11.0,68,0.00,,SKC,0.01,VWS V14.01,2013-09-03 15:16:00,
2013-09-03 11:21:00,64.5,52.9,29.83,ESE,103,10.0,13.0,66,0.00,,SKC,0.01,VWS V14.01,2013-09-03 15:21:00,
2013-09-03 11:26:00,64.0,52.8,29.83,East,91,4.0,13.0,67,0.00,,SKC,0.01,VWS V14.01,2013-09-03 15:26:00,
2013-09-03 11:31:00,63.7,53.3,29.85,East,94,0.0,13.0,69,0.00,,SKC,0.01,VWS V14.01,2013-09-03 15:31:00,
2013-09-03 11:36:00,63.4,53.1,29.85,East,100,7.0,13.0,69,0.00,,SKC,0.01,VWS V14.01,2013-09-03 15:36:00,
2013-09-03 11:41:00,63.2,52.9,29.85,East,96,0.0,13.0,69,0.00,,SKC,0.01,VWS V14.01,2013-09-03 15:41:00,
2013-09-03 11:46:00,63.1,52.8,29.85,ESE,110,0.0,13.0,69,0.00,,SKC,0.01,VWS V14.01,2013-09-03 15:46:00,
2013-09-03 11:51:00,63.2,52.5,29.85,East,88,0.0,13.0,68,0.00,,SKC,0.01,VWS V14.01,2013-09-03 15:51:00,
2013-09-03 11:57:00,63.7,53.3,29.85,East,84,2.0,13.0,69,0.00,,SKC,0.01,VWS V14.01,2013-09-03 15:57:00,
2013-09-03 12:00:00,64.0,52.4,29.85,East,85,0.0,13.0,66,0.00,,SKC,0.01,VWS V14.01,2013-09-03 16:00:00,
2013-09-03 12:02:00,64.2,53.4,29.85,East,88,3.0,6.0,68,0.00,,SKC,0.01,VWS V14.01,2013-09-03 16:02:00,
2013-09-03 12:07:00,64.0,53.2,29.85,East,100,4.0,10.0,68,0.00,,SKC,0.01,VWS V14.01,2013-09-03 16:07:00,
2013-09-03 12:12:00,63.5,53.2,29.85,ESE,104,6.0,10.0,69,0.00,,SKC,0.01,VWS V14.01,2013-09-03 16:12:00,
2013-09-03 12:17:00,63.2,53.3,29.85,ESE,103,7.0,10.0,70,0.00,,SKC,0.01,VWS V14.01,2013-09-03 16:17:00,
2013-09-03 12:22:00,63.2,53.3,29.85,East,98,6.0,10.0,70,0.00,,SKC,0.01,VWS V14.01,2013-09-03 16:22:00,
2013-09-03 12:27:00,63.2,52.9,29.85,East,87,3.0,11.0,69,0.00,,SKC,0.01,VWS V14.01,2013-09-03 16:27:00,
2013-09-03 12:32:00,63.2,51.7,29.85,East,86,4.0,12.0,66,0.00,,SKC,0.01,VWS V14.01,2013-09-03 16:32:00,
2013-09-03 12:37:00,63.5,52.4,29.85,East,94,8.0,12.0,67,0.00,,SKC,0.01,VWS V14.01,2013-09-03 16:37:00,
2013-09-03 12:43:00,63.7,52.5,29.85,ESE,103,1.0,12.0,67,0.00,,SKC,0.01,VWS V14.01,2013-09-03 16:43:00,
2013-09-03 12:48:00,63.7,52.5,29.85,East,90,0.0,12.0,67,0.00,,SKC,0.01,VWS V14.01,2013-09-03 16:48:00,
2013-09-03 12:53:00,63.5,52.4,29.85,East,93,0.0,12.0,67,0.00,,SKC,0.01,VWS V14.01,2013-09-03 16:53:00,
2013-09-03 12:58:00,63.4,52.3,29.85,ENE,75,0.0,12.0,67,0.00,,SKC,0.01,VWS V14.01,2013-09-03 16:58:00,
2013-09-03 13:00:00,63.2,52.1,29.85,ENE,60,0.0,12.0,67,0.00,,SKC,0.01,VWS V14.01,2013-09-03 17:00:00,
2013-09-03 13:03:00,63.2,52.5,29.85,ENE,71,0.0,7.0,68,0.00,,SKC,0.01,VWS V14.01,2013-09-03 17:03:00,
2013-09-03 13:08:00,63.5,52.4,29.85,ENE,76,0.0,9.0,67,0.00,,SKC,0.01,VWS V14.01,2013-09-03 17:08:00,
2013-09-03 13:13:00,63.9,53.1,29.85,ESE,109,5.0,9.0,68,0.00,,SKC,0.01,VWS V14.01,2013-09-03 17:13:00,
2013-09-03 13:18:00,64.2,52.6,29.85,East,94,6.0,10.0,66,0.00,,SKC,0.01,VWS V14.01,2013-09-03 17:18:00,
2013-09-03 13:24:00,63.9,52.7,29.85,East,88,8.0,10.0,67,0.00,,SKC,0.01,VWS V14.01,2013-09-03 17:24:00,
2013-09-03 13:29:00,63.4,52.3,29.85,ESE,107,0.0,10.0,67,0.00,,SKC,0.01,VWS V14.01,2013-09-03 17:29:00,
2013-09-03 13:34:00,63.4,52.7,29.86,East,86,3.0,10.0,68,0.00,,SKC,0.01,VWS V14.01,2013-09-03 17:34:00,
2013-09-03 13:39:00,63.5,53.2,29.86,ESE,106,1.0,10.0,69,0.00,,SKC,0.01,VWS V14.01,2013-09-03 17:39:00,
2013-09-03 13:44:00,63.5,52.4,29.86,ESE,103,0.0,10.0,67,0.00,,SKC,0.01,VWS V14.01,2013-09-03 17:44:00,
2013-09-03 13:49:00,63.4,52.3,29.85,East,101,6.0,10.0,67,0.00,,SKC,0.01,VWS V14.01,2013-09-03 17:49:00,
2013-09-03 13:54:00,63.4,53.1,29.85,East,83,0.0,10.0,69,0.00,,SKC,0.01,VWS V14.01,2013-09-03 17:54:00,
2013-09-03 13:59:00,63.5,53.2,29.85,NE,45,0.0,10.0,69,0.00,,SKC,0.01,VWS V14.01,2013-09-03 17:59:00,
2013-09-03 14:00:00,63.5,53.5,29.86,ENE,78,4.0,10.0,70,0.00,,SKC,0.01,VWS V14.01,2013-09-03 18:00:00,
2013-09-03 14:04:00,63.4,53.5,29.86,East,97,4.0,9.0,70,0.00,,SKC,0.01,VWS V14.01,2013-09-03 18:04:00,
2013-09-03 14:09:00,62.9,53.4,29.86,East,99,0.0,9.0,71,0.00,,SKC,0.01,VWS V14.01,2013-09-03 18:09:00,
2013-09-03 14:14:00,62.9,53.4,29.86,ENE,74,1.0,9.0,71,0.00,,SKC,0.01,VWS V14.01,2013-09-03 18:14:00,
2013-09-03 14:20:00,62.7,53.2,29.86,ENE,65,0.0,9.0,71,0.00,,SKC,0.01,VWS V14.01,2013-09-03 18:20:00,
2013-09-03 14:25:00,62.6,53.5,29.86,ENE,76,0.0,9.0,72,0.00,,SKC,0.01,VWS V14.01,2013-09-03 18:25:00,
2013-09-03 14:30:00,62.6,53.5,29.86,ENE,67,0.0,9.0,72,0.00,,SKC,0.01,VWS V14.01,2013-09-03 18:30:00,
2013-09-03 14:35:00,62.6,53.5,29.86,East,86,2.0,9.0,72,0.00,,SKC,0.01,VWS V14.01,2013-09-03 18:35:00,
2013-09-03 14:40:00,62.4,53.3,29.86,East,86,0.0,9.0,72,0.00,,SKC,0.01,VWS V14.01,2013-09-03 18:40:00,
2013-09-03 14:45:00,62.3,53.2,29.87,ENE,74,0.0,9.0,72,0.00,,SKC,0.01,VWS V14.01,2013-09-03 18:45:00,
2013-09-03 14:50:00,62.4,53.6,29.87,ENE,74,0.0,9.0,73,0.00,,SKC,0.01,VWS V14.01,2013-09-03 18:50:00,
2013-09-03 14:55:00,62.4,53.6,29.87,East,85,4.0,9.0,73,0.00,,SKC,0.01,VWS V14.01,2013-09-03 18:55:00,
2013-09-03 15:00:00,62.6,53.8,29.87,East,85,0.0,9.0,73,0.00,,SKC,0.01,VWS V14.01,2013-09-03 19:00:00,
2013-09-03 15:05:00,62.6,53.8,29.87,East,93,0.0,5.0,73,0.00,,SKC,0.01,VWS V14.01,2013-09-03 19:05:00,
2013-09-03 15:10:00,62.6,53.8,29.87,ESE,103,5.0,7.0,73,0.00,,SKC,0.01,VWS V14.01,2013-09-03 19:10:00,
2013-09-03 15:15:00,62.4,53.6,29.87,ENE,70,0.0,7.0,73,0.00,,SKC,0.01,VWS V14.01,2013-09-03 19:15:00,
2013-09-03 15:20:00,62.3,53.2,29.87,ENE,74,6.0,7.0,72,0.00,,SKC,0.01,VWS V14.01,2013-09-03 19:20:00,
2013-09-03 15:25:00,62.4,53.6,29.87,East,88,2.0,8.0,73,0.00,,SKC,0.01,VWS V14.01,2013-09-03 19:25:00,
2013-09-03 15:31:00,62.6,53.5,29.86,East,97,0.0,8.0,72,0.00,,SKC,0.01,VWS V14.01,2013-09-03 19:31:00,
2013-09-03 15:36:00,62.6,53.8,29.86,East,101,7.0,8.0,73,0.00,,SKC,0.01,VWS V14.01,2013-09-03 19:36:00,
2013-09-03 15:41:00,62.6,53.8,29.86,East,85,5.0,8.0,73,0.00,,SKC,0.01,VWS V14.01,2013-09-03 19:41:00,
2013-09-03 15:46:00,62.3,53.5,29.87,ENE,76,8.0,10.0,73,0.00,,SKC,0.01,VWS V14.01,2013-09-03 19:46:00,
2013-09-03 15:51:00,62.1,53.7,29.87,East,87,2.0,10.0,74,0.00,,SKC,0.01,VWS V14.01,2013-09-03 19:51:00,
2013-09-03 15:56:00,62.0,54.0,29.87,East,84,0.0,10.0,75,0.00,,SKC,0.01,VWS V14.01,2013-09-03 19:56:00,
2013-09-03 16:00:00,62.0,54.0,29.87,East,84,0.0,10.0,75,0.00,,SKC,0.01,VWS V14.01,2013-09-03 20:00:00,
2013-09-03 16:01:00,62.0,54.0,29.87,East,84,0.0,0.0,75,0.00,,SKC,0.01,VWS V14.01,2013-09-03 20:01:00,
2013-09-03 16:06:00,62.0,53.6,29.87,East,81,2.0,6.0,74,0.00,,SKC,0.01,VWS V14.01,2013-09-03 20:06:00,
2013-09-03 16:12:00,62.0,54.0,29.87,East,81,0.0,6.0,75,0.00,,SKC,0.01,VWS V14.01,2013-09-03 20:12:00,
2013-09-03 16:17:00,62.1,53.7,29.87,East,81,3.0,6.0,74,0.00,,SKC,0.01,VWS V14.01,2013-09-03 20:17:00,
2013-09-03 16:22:00,62.1,53.7,29.87,East,81,0.0,6.0,74,0.00,,SKC,0.01,VWS V14.01,2013-09-03 20:22:00,
2013-09-03 16:27:00,62.1,53.7,29.87,East,81,0.0,6.0,74,0.00,,SKC,0.01,VWS V14.01,2013-09-03 20:27:00,
2013-09-03 16:32:00,62.3,53.9,29.87,East,92,0.0,6.0,74,0.00,,SKC,0.01,VWS V14.01,2013-09-03 20:32:00,
2013-09-03 16:37:00,62.4,54.0,29.87,East,92,0.0,6.0,74,0.00,,SKC,0.01,VWS V14.01,2013-09-03 20:37:00,
2013-09-03 16:42:00,62.4,53.6,29.87,ENE,67,2.0,6.0,73,0.00,,SKC,0.01,VWS V14.01,2013-09-03 20:42:00,
2013-09-03 16:47:00,62.3,53.5,29.87,ENE,77,3.0,6.0,73,0.00,,SKC,0.01,VWS V14.01,2013-09-03 20:47:00,
2013-09-03 16:52:00,62.4,54.0,29.87,ENE,77,0.0,6.0,74,0.00,,SKC,0.01,VWS V14.01,2013-09-03 20:52:00,
2013-09-03 16:58:00,62.6,53.8,29.87,ENE,77,1.0,6.0,73,0.00,,SKC,0.01,VWS V14.01,2013-09-03 20:58:00,
2013-09-03 17:00:00,62.6,53.8,29.87,ENE,77,0.0,6.0,73,0.00,,SKC,0.01,VWS V14.01,2013-09-03 21:00:00,
2013-09-03 17:03:00,62.6,53.8,29.87,East,84,4.0,5.0,73,0.00,,SKC,0.01,VWS V14.01,2013-09-03 21:03:00,
2013-09-03 17:08:00,62.9,53.8,29.87,East,84,0.0,5.0,72,0.00,,SKC,0.01,VWS V14.01,2013-09-03 21:08:00,
2013-09-03 17:13:00,63.1,54.3,29.87,East,84,2.0,5.0,73,0.00,,SKC,0.01,VWS V14.01,2013-09-03 21:13:00,
2013-09-03 17:18:00,63.4,54.2,29.87,East,84,0.0,5.0,72,0.00,,SKC,0.01,VWS V14.01,2013-09-03 21:18:00,
2013-09-03 17:23:00,63.4,53.8,29.87,East,79,5.0,8.0,71,0.00,,SKC,0.01,VWS V14.01,2013-09-03 21:23:00,
2013-09-03 17:28:00,63.2,54.0,29.87,ENE,78,0.0,8.0,72,0.00,,SKC,0.01,VWS V14.01,2013-09-03 21:28:00,
2013-09-03 17:33:00,63.2,54.0,29.87,NE,51,0.0,8.0,72,0.00,,SKC,0.01,VWS V14.01,2013-09-03 21:33:00,
2013-09-03 17:38:00,63.2,54.4,29.87,ENE,65,0.0,8.0,73,0.00,,SKC,0.01,VWS V14.01,2013-09-03 21:38:00,
2013-09-03 17:43:00,63.4,55.0,29.87,ENE,65,0.0,8.0,74,0.00,,SKC,0.01,VWS V14.01,2013-09-03 21:43:00,
2013-09-03 17:49:00,63.2,54.4,29.87,ENE,65,4.0,8.0,73,0.00,,SKC,0.01,VWS V14.01,2013-09-03 21:49:00,
2013-09-03 17:54:00,63.1,54.7,29.87,ENE,66,0.0,8.0,74,0.00,,SKC,0.01,VWS V14.01,2013-09-03 21:54:00,
2013-09-03 17:59:00,62.9,54.9,29.87,ENE,65,0.0,8.0,75,0.00,,SKC,0.01,VWS V14.01,2013-09-03 21:59:00,
2013-09-03 18:00:00,62.9,54.9,29.87,ENE,66,0.0,8.0,75,0.00,,SKC,0.01,VWS V14.01,2013-09-03 22:00:00,
2013-09-03 18:04:00,63.1,55.1,29.87,ENE,65,0.0,0.0,75,0.00,,SKC,0.01,VWS V14.01,2013-09-03 22:04:00,
2013-09-03 18:09:00,62.9,54.9,29.87,ENE,69,0.0,7.0,75,0.00,,SKC,0.01,VWS V14.01,2013-09-03 22:09:00,
2013-09-03 18:14:00,62.9,54.9,29.87,ENE,69,0.0,7.0,75,0.00,,SKC,0.01,VWS V14.01,2013-09-03 22:14:00,
2013-09-03 18:19:00,62.9,55.2,29.87,ENE,69,0.0,7.0,76,0.00,,SKC,0.01,VWS V14.01,2013-09-03 22:19:00,
2013-09-03 18:24:00,62.9,55.2,29.87,ENE,69,0.0,7.0,76,0.00,,SKC,0.01,VWS V14.01,2013-09-03 22:24:00,
2013-09-03 18:29:00,62.7,55.0,29.87,ENE,69,0.0,7.0,76,0.00,,SKC,0.01,VWS V14.01,2013-09-03 22:29:00,
2013-09-03 18:35:00,62.6,54.6,29.87,ENE,69,0.0,7.0,75,0.00,,SKC,0.01,VWS V14.01,2013-09-03 22:35:00,
2013-09-03 18:40:00,62.6,55.3,29.87,ENE,69,0.0,7.0,77,0.00,,SKC,0.01,VWS V14.01,2013-09-03 22:40:00,
2013-09-03 18:45:00,62.6,55.3,29.87,ENE,69,0.0,7.0,77,0.00,,SKC,0.01,VWS V14.01,2013-09-03 22:45:00,
2013-09-03 18:50:00,62.4,54.8,29.87,ENE,69,0.0,7.0,76,0.00,,SKC,0.01,VWS V14.01,2013-09-03 22:50:00,
2013-09-03 18:55:00,62.3,54.7,29.87,ENE,69,0.0,7.0,76,0.00,,SKC,0.01,VWS V14.01,2013-09-03 22:55:00,
2013-09-03 19:00:00,62.1,54.5,29.87,ENE,69,0.0,7.0,76,0.00,,SKC,0.01,VWS V14.01,2013-09-03 23:00:00,
2013-09-03 19:05:00,62.1,54.8,29.87,ENE,69,0.0,0.0,77,0.00,,SKC,0.01,VWS V14.01,2013-09-03 23:05:00,
2013-09-03 19:10:00,62.0,54.7,29.87,ENE,69,0.0,4.0,77,0.00,,SKC,0.01,VWS V14.01,2013-09-03 23:10:00,
2013-09-03 19:15:00,62.0,54.7,29.87,ENE,69,0.0,4.0,77,0.00,,SKC,0.01,VWS V14.01,2013-09-03 23:15:00,
2013-09-03 19:21:00,61.8,54.5,29.87,ENE,69,0.0,4.0,77,0.00,,SKC,0.01,VWS V14.01,2013-09-03 23:21:00,
2013-09-03 19:26:00,61.8,54.5,29.87,ENE,69,0.0,4.0,77,0.00,,SKC,0.01,VWS V14.01,2013-09-03 23:26:00,
2013-09-03 19:31:00,61.8,54.9,29.88,ENE,69,0.0,4.0,78,0.00,,SKC,0.01,VWS V14.01,2013-09-03 23:31:00,
2013-09-03 19:36:00,61.8,54.9,29.88,ENE,69,0.0,4.0,78,0.00,,SKC,0.01,VWS V14.01,2013-09-03 23:36:00,
2013-09-03 19:41:00,61.6,55.0,29.88,ENE,69,0.0,4.0,79,0.00,,SKC,0.01,VWS V14.01,2013-09-03 23:41:00,
2013-09-03 19:46:00,61.6,54.7,29.88,ENE,69,0.0,4.0,78,0.00,,SKC,0.01,VWS V14.01,2013-09-03 23:46:00,
2013-09-03 19:51:00,61.5,54.9,29.88,ENE,69,0.0,4.0,79,0.00,,SKC,0.01,VWS V14.01,2013-09-03 23:51:00,
2013-09-03 19:56:00,61.5,54.9,29.88,ENE,69,0.0,4.0,79,0.00,,SKC,0.01,VWS V14.01,2013-09-03 23:56:00,
2013-09-03 20:00:00,61.3,54.7,29.89,ENE,69,0.0,4.0,79,0.00,,SKC,0.01,VWS V14.01,2013-09-04 00:00:00,
2013-09-03 20:02:00,61.3,54.7,29.89,ENE,69,0.0,0.0,79,0.00,,SKC,0.01,VWS V14.01,2013-09-04 00:02:00,
2013-09-03 20:07:00,61.2,54.6,29.89,ENE,69,0.0,0.0,79,0.00,,SKC,0.01,VWS V14.01,2013-09-04 00:07:00,
2013-09-03 20:12:00,61.2,54.6,29.89,ENE,69,0.0,0.0,79,0.00,,SKC,0.01,VWS V14.01,2013-09-04 00:12:00,
2013-09-03 20:17:00,61.0,54.8,29.89,ENE,69,0.0,0.0,80,0.00,,SKC,0.01,VWS V14.01,2013-09-04 00:17:00,
2013-09-03 20:22:00,60.9,54.7,29.89,ENE,69,0.0,0.0,80,0.00,,SKC,0.01,VWS V14.01,2013-09-04 00:22:00,
2013-09-03 20:27:00,60.9,54.7,29.89,ENE,69,0.0,0.0,80,0.00,,SKC,0.01,VWS V14.01,2013-09-04 00:27:00,
2013-09-03 20:32:00,60.9,54.7,29.89,ENE,69,0.0,0.0,80,0.00,,SKC,0.01,VWS V14.01,2013-09-04 00:32:00,
2013-09-03 20:37:00,60.7,54.8,29.89,ENE,69,0.0,0.0,81,0.00,,SKC,0.01,VWS V14.01,2013-09-04 00:37:00,
2013-09-03 20:43:00,60.7,54.8,29.89,ENE,69,0.0,0.0,81,0.00,,SKC,0.01,VWS V14.01,2013-09-04 00:43:00,
2013-09-03 20:48:00,60.7,55.2,29.90,ENE,69,0.0,0.0,82,0.00,,SKC,0.01,VWS V14.01,2013-09-04 00:48:00,
2013-09-03 20:53:00,60.7,55.2,29.90,ENE,69,0.0,0.0,82,0.00,,SKC,0.01,VWS V14.01,2013-09-04 00:53:00,
2013-09-03 20:58:00,60.7,55.2,29.90,ENE,69,0.0,0.0,82,0.00,,SKC,0.01,VWS V14.01,2013-09-04 00:58:00,
2013-09-03 21:00:00,60.5,55.0,29.90,ENE,69,0.0,0.0,82,0.00,,SKC,0.01,VWS V14.01,2013-09-04 01:00:00,
2013-09-03 21:03:00,60.5,55.0,29.90,ENE,69,0.0,0.0,82,0.00,,SKC,0.01,VWS V14.01,2013-09-04 01:03:00,
2013-09-03 21:08:00,60.4,54.9,29.90,ENE,69,0.0,0.0,82,0.00,,SKC,0.01,VWS V14.01,2013-09-04 01:08:00,
2013-09-03 21:13:00,60.4,54.9,29.90,ENE,69,0.0,0.0,82,0.00,,SKC,0.01,VWS V14.01,2013-09-04 01:13:00,
2013-09-03 21:18:00,60.2,54.7,29.91,ENE,69,0.0,0.0,82,0.00,,SKC,0.01,VWS V14.01,2013-09-04 01:18:00,
2013-09-03 21:23:00,59.9,54.4,29.91,ENE,69,0.0,0.0,82,0.00,,SKC,0.01,VWS V14.01,2013-09-04 01:23:00,
2013-09-03 21:28:00,59.6,54.1,29.91,ENE,69,0.0,0.0,82,0.00,,SKC,0.01,VWS V14.01,2013-09-04 01:28:00,
2013-09-03 21:34:00,59.5,54.3,29.90,ENE,69,0.0,0.0,83,0.00,,SKC,0.01,VWS V14.01,2013-09-04 01:34:00,
2013-09-03 21:39:00,59.2,54.0,29.90,ENE,69,0.0,0.0,83,0.00,,SKC,0.01,VWS V14.01,2013-09-04 01:39:00,
2013-09-03 21:44:00,59.0,54.2,29.90,ENE,69,0.0,0.0,84,0.00,,SKC,0.01,VWS V14.01,2013-09-04 01:44:00,
2013-09-03 21:49:00,59.0,54.5,29.91,ENE,69,0.0,0.0,85,0.00,,SKC,0.01,VWS V14.01,2013-09-04 01:49:00,
2013-09-03 21:54:00,58.9,54.7,29.91,ENE,69,0.0,0.0,86,0.00,,SKC,0.01,VWS V14.01,2013-09-04 01:54:00,
2013-09-03 21:59:00,58.7,54.5,29.91,ENE,69,0.0,0.0,86,0.00,,SKC,0.01,VWS V14.01,2013-09-04 01:59:00,
2013-09-03 22:00:00,58.6,54.4,29.92,ENE,69,0.0,0.0,86,0.00,,SKC,0.01,VWS V14.01,2013-09-04 02:00:00,
2013-09-03 22:04:00,58.4,54.2,29.92,ENE,69,0.0,0.0,86,0.00,,SKC,0.01,VWS V14.01,2013-09-04 02:04:00,
2013-09-03 22:09:00,58.3,54.5,29.92,ENE,69,0.0,0.0,87,0.00,,SKC,0.01,VWS V14.01,2013-09-04 02:09:00,
2013-09-03 22:14:00,58.1,54.3,29.92,ENE,69,0.0,0.0,87,0.00,,SKC,0.01,VWS V14.01,2013-09-04 02:14:00,
2013-09-03 22:19:00,57.8,54.0,29.91,ENE,69,0.0,0.0,87,0.00,,SKC,0.01,VWS V14.01,2013-09-04 02:19:00,
2013-09-03 22:24:00,57.6,54.1,29.91,ENE,69,0.0,0.0,88,0.00,,SKC,0.01,VWS V14.01,2013-09-04 02:24:00,
2013-09-03 22:30:00,57.5,54.0,29.91,ENE,69,0.0,0.0,88,0.00,,SKC,0.01,VWS V14.01,2013-09-04 02:30:00,
2013-09-03 22:35:00,57.3,53.8,29.91,ENE,69,0.0,0.0,88,0.00,,SKC,0.01,VWS V14.01,2013-09-04 02:35:00,
2013-09-03 22:40:00,57.2,54.0,29.91,ENE,69,0.0,0.0,89,0.00,,SKC,0.01,VWS V14.01,2013-09-04 02:40:00,
2013-09-03 22:45:00,57.2,54.0,29.92,ENE,69,0.0,0.0,89,0.00,,SKC,0.01,VWS V14.01,2013-09-04 02:45:00,
2013-09-03 22:50:00,57.0,53.8,29.92,ENE,69,0.0,0.0,89,0.00,,SKC,0.01,VWS V14.01,2013-09-04 02:50:00,
2013-09-03 22:55:00,56.9,53.7,29.92,ENE,69,0.0,0.0,89,0.00,,SKC,0.01,VWS V14.01,2013-09-04 02:55:00,
2013-09-03 23:00:00,56.9,54.0,29.92,ENE,69,0.0,0.0,90,0.00,,SKC,0.01,VWS V14.01,2013-09-04 03:00:00,
2013-09-03 23:05:00,56.7,53.8,29.92,ENE,69,0.0,0.0,90,0.00,,SKC,0.01,VWS V14.01,2013-09-04 03:05:00,
2013-09-03 23:11:00,56.6,53.7,29.92,ENE,69,0.0,0.0,90,0.00,,SKC,0.01,VWS V14.01,2013-09-04 03:11:00,
2013-09-03 23:16:00,56.5,53.6,29.92,ENE,69,0.0,0.0,90,0.00,,SKC,0.01,VWS V14.01,2013-09-04 03:16:00,
2013-09-03 23:21:00,56.2,53.3,29.92,ENE,69,0.0,0.0,90,0.00,,SKC,0.01,VWS V14.01,2013-09-04 03:21:00,
2013-09-03 23:26:00,55.9,53.0,29.92,ENE,69,0.0,0.0,90,0.00,,SKC,0.01,VWS V14.01,2013-09-04 03:26:00,
2013-09-03 23:31:00,55.9,53.3,29.92,ENE,69,0.0,0.0,91,0.00,,SKC,0.01,VWS V14.01,2013-09-04 03:31:00,
2013-09-03 23:36:00,55.7,53.1,29.92,ENE,69,0.0,0.0,91,0.00,,SKC,0.01,VWS V14.01,2013-09-04 03:36:00,
2013-09-03 23:41:00,55.4,52.8,29.92,ENE,69,0.0,0.0,91,0.00,,SKC,0.01,VWS V14.01,2013-09-04 03:41:00,
2013-09-03 23:47:00,55.3,52.7,29.92,ENE,69,0.0,0.0,91,0.00,,SKC,0.01,VWS V14.01,2013-09-04 03:47:00,
2013-09-03 23:52:00,55.0,52.4,29.92,ENE,69,0.0,0.0,91,0.00,,SKC,0.01,VWS V14.01,2013-09-04 03:52:00,
2013-09-03 23:57:00,55.0,52.7,29.92,ENE,69,0.0,0.0,92,0.00,,SKC,0.01,VWS V14.01,2013-09-04 03:57:00,